createdAt,value
2023-02-21T00:03:04.843Z,100798.67
2023-02-21T00:06:38.554Z,100800.42
2023-02-21T00:10:05.640Z,100785.63
2023-02-21T00:13:32.912Z,100777.79
2023-02-21T00:16:40.323Z,100764.80
2023-02-21T00:19:27.614Z,100759.61
2023-02-21T00:22:15.447Z,100743.34
2023-02-21T00:25:03.487Z,100737.08
2023-02-21T00:27:50.987Z,100740.43
2023-02-21T00:30:38.664Z,100721.67
2023-02-21T00:33:26.209Z,100705.39
2023-02-21T00:36:13.702Z,100695.79
2023-02-21T00:39:01.442Z,100691.83
2023-02-21T00:41:48.755Z,100686.18
2023-02-21T00:44:36.759Z,100670.29
2023-02-21T00:47:23.814Z,100648.71
2023-02-21T00:50:11.442Z,100650.54
2023-02-21T00:53:44.553Z,100642.37
2023-02-21T00:57:11.593Z,100625.34
2023-02-21T01:00:35.272Z,100625.04
2023-02-21T01:04:02.355Z,100629.11
2023-02-21T01:07:35.947Z,100620.52
2023-02-21T01:11:06.329Z,100609.36
2023-02-21T01:14:33.228Z,100595.91
2023-02-21T01:18:00.053Z,100579.82
2023-02-21T01:21:28.154Z,100574.45
2023-02-21T01:24:55.171Z,100578.95
2023-02-21T01:28:22.240Z,100575.38
2023-02-21T01:31:49.422Z,100580.84
2023-02-21T01:34:37.673Z,100575.74
2023-02-21T01:37:25.095Z,100577.17
2023-02-21T01:40:12.520Z,100572.10
2023-02-21T01:42:59.946Z,100573.14
2023-02-21T01:45:56.295Z,100572.45
2023-02-21T01:48:45.042Z,100563.14
2023-02-21T01:51:42.460Z,100560.48
2023-02-21T01:54:30.965Z,100560.29
2023-02-21T01:57:21.960Z,100554.56
2023-02-21T02:00:10.816Z,100565.03
2023-02-21T02:03:15.653Z,100564.05
2023-02-21T02:06:07.586Z,100570.97
2023-02-21T02:08:56.549Z,100591.15
2023-02-21T02:12:05.308Z,100584.05
2023-02-21T02:15:15.637Z,100552.85
2023-02-21T02:41:18.158Z,100536.20
2023-02-21T02:43:56.061Z,100524.38
2023-02-21T02:46:29.025Z,100542.77
2023-02-21T02:49:03.017Z,100549.86
2023-02-21T02:51:34.102Z,100549.19
2023-02-21T02:54:03.713Z,100544.23
2023-02-21T02:56:34.042Z,100544.86
2023-02-21T02:59:18.483Z,100554.15
2023-02-21T03:01:59.605Z,100535.30
2023-02-21T03:04:45.818Z,100536.57
2023-02-21T03:07:21.934Z,100533.11
2023-02-21T03:10:02.587Z,100527.11
2023-02-21T03:12:45.513Z,100527.36
2023-02-21T03:15:17.636Z,100528.27
2023-02-21T03:18:00.101Z,100529.00
2023-02-21T03:20:30.167Z,100508.45
2023-02-21T03:23:01.253Z,100501.49
2023-02-21T03:25:32.858Z,100492.95
2023-02-21T03:28:03.533Z,100489.85
2023-02-21T03:30:44.890Z,100477.41
2023-02-21T03:33:13.606Z,100486.14
2023-02-21T03:35:42.910Z,100494.01
2023-02-21T03:38:12.308Z,100496.63
2023-02-21T03:40:41.553Z,100506.86
2023-02-21T03:43:10.090Z,100497.38
2023-02-21T03:45:51.891Z,100494.52
2023-02-21T03:48:31.350Z,100489.33
2023-02-21T03:51:04.927Z,100500.66
2023-02-21T03:53:37.785Z,100492.96
2023-02-21T03:56:08.549Z,100475.02
2023-02-21T03:58:53.520Z,100479.99
2023-02-21T04:01:22.752Z,100496.09
2023-02-21T04:03:52.530Z,100500.74
2023-02-21T04:06:21.216Z,100493.61
2023-02-21T04:08:52.319Z,100484.27
2023-02-21T04:11:23.200Z,100489.02
2023-02-21T04:13:53.808Z,100497.13
2023-02-21T04:16:22.496Z,100493.37
2023-02-21T04:18:53.762Z,100483.74
2023-02-21T04:21:22.757Z,100477.80
2023-02-21T04:23:52.979Z,100476.73
2023-02-21T04:26:24.358Z,100473.41
2023-02-21T04:28:53.753Z,100471.23
2023-02-21T04:31:23.681Z,100468.69
2023-02-21T04:34:05.739Z,100465.73
2023-02-21T04:36:39.841Z,100465.77
2023-02-21T04:39:09.567Z,100464.45
2023-02-21T04:41:39.809Z,100469.43
2023-02-21T04:44:08.587Z,100467.87
2023-02-21T04:46:37.477Z,100463.27
2023-02-21T04:49:06.268Z,100461.06
2023-02-21T04:51:34.870Z,100459.83
2023-02-21T04:54:04.254Z,100454.36
2023-02-21T04:56:32.967Z,100454.14
2023-02-21T04:59:01.504Z,100461.45
2023-02-21T05:01:31.871Z,100451.80
2023-02-21T05:04:01.083Z,100451.34
2023-02-21T05:06:30.898Z,100449.41
2023-02-21T05:09:00.742Z,100452.80
2023-02-21T05:11:29.367Z,100453.63
2023-02-21T05:13:58.155Z,100463.72
2023-02-21T05:16:27.592Z,100458.89
2023-02-21T05:18:56.239Z,100457.55
2023-02-21T05:21:24.924Z,100461.36
2023-02-21T05:23:57.160Z,100465.85
2023-02-21T05:26:31.575Z,100459.47
2023-02-21T05:29:00.609Z,100455.80
2023-02-21T05:31:29.494Z,100454.58
2023-02-21T05:33:58.605Z,100458.21
2023-02-21T05:36:27.799Z,100447.73
2023-02-21T05:38:56.705Z,100443.71
2023-02-21T05:41:25.379Z,100439.90
2023-02-21T05:43:54.375Z,100431.34
2023-02-21T05:46:26.317Z,100429.96
2023-02-21T05:48:56.722Z,100420.10
2023-02-21T05:51:26.066Z,100413.73
2023-02-21T05:53:54.895Z,100414.08
2023-02-21T05:56:24.051Z,100413.47
2023-02-21T05:58:52.532Z,100409.15
2023-02-21T06:01:21.113Z,100408.81
2023-02-21T06:03:50.618Z,100403.50
2023-02-21T06:06:19.612Z,100406.08
2023-02-21T06:08:49.837Z,100400.17
2023-02-21T06:11:28.597Z,100392.36
2023-02-21T06:13:58.889Z,100387.36
2023-02-21T06:16:29.124Z,100389.97
2023-02-21T06:18:57.795Z,100384.70
2023-02-21T06:21:26.680Z,100379.81
2023-02-21T06:23:56.049Z,100379.58
2023-02-21T06:26:24.874Z,100377.27
2023-02-21T06:28:53.661Z,100369.72
2023-02-21T06:31:22.707Z,100369.45
2023-02-21T06:33:52.173Z,100363.51
2023-02-21T06:36:24.924Z,100368.01
2023-02-21T06:38:56.399Z,100380.32
2023-02-21T06:41:30.330Z,100401.34
2023-02-21T06:43:59.720Z,100412.82
2023-02-21T06:46:30.454Z,100433.58
2023-02-21T06:48:59.134Z,100438.58
2023-02-21T06:51:31.310Z,100448.21
2023-02-21T06:54:00.617Z,100461.92
2023-02-21T06:56:29.665Z,100471.75
2023-02-21T06:58:58.597Z,100474.39
2023-02-21T07:01:29.002Z,100481.45
2023-02-21T07:03:59.101Z,100480.63
2023-02-21T07:06:29.923Z,100486.31
2023-02-21T07:08:59.177Z,100484.95
2023-02-21T07:11:28.173Z,100492.64
2023-02-21T07:14:00.045Z,100499.79
2023-02-21T07:16:28.818Z,100497.36
2023-02-21T07:18:57.709Z,100495.63
2023-02-21T07:21:27.488Z,100499.55
2023-02-21T07:23:56.823Z,100505.98
2023-02-21T07:26:25.523Z,100514.73
2023-02-21T07:28:54.318Z,100515.66
2023-02-21T07:31:23.805Z,100512.44
2023-02-21T07:33:52.383Z,100512.14
2023-02-21T07:36:23.018Z,100501.98
2023-02-21T07:38:52.012Z,100500.28
2023-02-21T07:41:21.108Z,100491.68
2023-02-21T07:43:49.876Z,100488.81
2023-02-21T07:46:18.737Z,100486.51
2023-02-21T07:48:47.375Z,100478.21
2023-02-21T07:51:16.603Z,100470.73
2023-02-21T07:53:45.578Z,100473.92
2023-02-21T07:56:14.186Z,100467.90
2023-02-21T07:58:42.857Z,100474.55
2023-02-21T08:01:11.460Z,100472.49
2023-02-21T08:03:41.248Z,100472.23
2023-02-21T08:06:11.048Z,100464.86
2023-02-21T08:08:39.693Z,100463.91
2023-02-21T08:11:08.221Z,100467.26
2023-02-21T08:13:37.894Z,100460.63
2023-02-21T08:16:07.181Z,100456.52
2023-02-21T08:18:35.815Z,100452.45
2023-02-21T08:21:05.111Z,100439.97
2023-02-21T08:23:33.863Z,100437.04
2023-02-21T08:26:04.392Z,100430.20
2023-02-21T08:28:33.225Z,100422.02
2023-02-21T08:31:02.198Z,100421.62
2023-02-21T08:33:31.736Z,100416.34
2023-02-21T08:36:00.509Z,100418.88
2023-02-21T08:38:29.307Z,100424.14
2023-02-21T08:40:58.374Z,100420.40
2023-02-21T08:43:28.006Z,100416.83
2023-02-21T08:45:56.795Z,100412.63
2023-02-21T08:48:25.629Z,100414.76
2023-02-21T08:50:54.584Z,100414.29
2023-02-21T08:53:23.269Z,100415.27
2023-02-21T08:55:51.856Z,100410.21
2023-02-21T08:58:20.952Z,100402.56
2023-02-21T09:00:49.772Z,100403.22
2023-02-21T09:03:18.431Z,100402.90
2023-02-21T09:05:47.591Z,100398.61
2023-02-21T09:08:16.363Z,100404.38
2023-02-21T09:10:47.845Z,100397.68
2023-02-21T09:13:16.725Z,100404.11
2023-02-21T09:15:45.866Z,100398.27
2023-02-21T09:18:14.439Z,100400.75
2023-02-21T09:20:43.430Z,100396.20
2023-02-21T09:23:12.430Z,100398.87
2023-02-21T09:25:41.116Z,100392.65
2023-02-21T09:28:09.714Z,100395.34
2023-02-21T09:30:38.530Z,100394.02
2023-02-21T09:33:07.980Z,100396.08
2023-02-21T09:35:36.855Z,100398.88
2023-02-21T09:38:09.608Z,100395.83
2023-02-21T09:41:01.278Z,100390.98
2023-02-21T09:43:46.072Z,100391.25
2023-02-21T09:46:21.885Z,100386.03
2023-02-21T09:48:52.082Z,100384.87
2023-02-21T09:51:20.665Z,100380.45
2023-02-21T09:53:49.807Z,100379.44
2023-02-21T09:56:25.571Z,100371.23
2023-02-21T09:58:55.180Z,100370.85
2023-02-21T10:01:48.856Z,100369.23
2023-02-21T10:04:31.988Z,100370.01
2023-02-21T10:07:11.368Z,100365.42
2023-02-21T10:09:58.231Z,100363.66
2023-02-21T10:12:33.271Z,100360.73
2023-02-21T10:15:14.148Z,100362.79
2023-02-21T10:17:49.796Z,100343.07
2023-02-21T10:20:36.292Z,100338.28
2023-02-21T10:23:25.355Z,100332.43
2023-02-21T10:26:03.157Z,100326.50
2023-02-21T10:28:32.050Z,100325.95
2023-02-21T10:31:05.678Z,100319.59
2023-02-21T10:33:37.484Z,100319.64
2023-02-21T10:36:23.624Z,100312.34
2023-02-21T10:39:11.862Z,100311.20
2023-02-21T10:41:41.847Z,100301.34
2023-02-21T10:44:22.465Z,100301.36
2023-02-21T10:47:23.491Z,100294.92
2023-02-21T10:50:12.244Z,100293.11
2023-02-21T10:52:52.102Z,100288.35
2023-02-21T10:55:32.765Z,100284.83
2023-02-21T10:58:24.497Z,100278.21
2023-02-21T11:00:53.410Z,100270.75
2023-02-21T11:03:27.773Z,100263.03
2023-02-21T11:05:58.393Z,100264.77
2023-02-21T11:08:40.199Z,100265.42
2023-02-21T11:11:09.816Z,100252.87
2023-02-21T11:13:38.738Z,100259.35
2023-02-21T11:16:20.368Z,100257.02
2023-02-21T11:19:05.905Z,100248.70
2023-02-21T11:21:34.814Z,100245.77
2023-02-21T11:24:06.430Z,100238.78
2023-02-21T11:26:47.428Z,100237.98
2023-02-21T11:29:21.424Z,100230.71
2023-02-21T11:31:51.545Z,100238.76
2023-02-21T11:34:20.725Z,100234.73
2023-02-21T11:36:53.137Z,100229.26
2023-02-21T11:39:31.823Z,100235.03
2023-02-21T11:42:04.474Z,100229.80
2023-02-21T11:44:35.866Z,100222.60
2023-02-21T11:47:20.022Z,100230.65
2023-02-21T11:50:05.816Z,100219.11
2023-02-21T11:52:50.152Z,100214.45
2023-02-21T11:55:26.493Z,100216.10
2023-02-21T11:58:00.568Z,100205.17
2023-02-21T12:01:02.168Z,100194.02
2023-02-21T12:03:36.480Z,100198.42
2023-02-21T12:06:23.454Z,100189.28
2023-02-21T12:08:59.699Z,100183.83
2023-02-21T12:11:37.423Z,100176.61
2023-02-21T12:14:16.863Z,100169.16
2023-02-21T12:16:53.736Z,100162.81
2023-02-21T12:19:25.515Z,100149.89
2023-02-21T12:22:12.000Z,100154.05
2023-02-21T12:25:16.125Z,100141.77
2023-02-21T12:28:14.196Z,100145.86
2023-02-21T12:31:12.358Z,100138.98
2023-02-21T12:33:59.601Z,100138.48
2023-02-21T12:36:49.789Z,100133.79
2023-02-21T12:39:25.606Z,100132.77
2023-02-21T12:42:12.968Z,100126.92
2023-02-21T12:44:59.167Z,100130.79
2023-02-21T12:47:43.185Z,100127.08
2023-02-21T12:50:53.174Z,100120.96
2023-02-21T12:53:55.547Z,100121.71
2023-02-21T12:56:35.709Z,100117.76
2023-02-21T12:59:41.582Z,100124.81
2023-02-21T13:02:27.331Z,100118.87
2023-02-21T13:05:01.879Z,100115.92
2023-02-21T13:07:38.105Z,100116.15
2023-02-21T13:10:19.336Z,100117.57
2023-02-21T13:13:08.808Z,100117.17
2023-02-21T13:15:38.406Z,100113.36
2023-02-21T13:18:16.820Z,100111.38
2023-02-21T13:20:59.435Z,100112.30
2023-02-21T13:23:59.042Z,100104.45
2023-02-21T13:27:00.112Z,100108.95
2023-02-21T13:29:31.238Z,100104.79
2023-02-21T13:32:23.534Z,100095.80
2023-02-21T13:35:03.510Z,100096.27
2023-02-21T13:37:35.948Z,100093.41
2023-02-21T13:40:17.097Z,100095.41
2023-02-21T13:42:46.077Z,100093.02
2023-02-21T13:45:22.546Z,100088.17
2023-02-21T13:48:00.604Z,100094.26
2023-02-21T13:50:38.052Z,100093.63
2023-02-21T13:53:18.817Z,100091.52
2023-02-21T13:55:59.489Z,100083.40
2023-02-21T13:58:37.994Z,100092.87
2023-02-21T14:01:29.461Z,100091.05
2023-02-21T14:03:58.684Z,100086.71
2023-02-21T14:06:32.947Z,100085.87
2023-02-21T14:09:15.778Z,100089.56
2023-02-21T14:11:52.238Z,100086.80
2023-02-21T14:14:25.719Z,100090.43
2023-02-21T14:17:04.971Z,100091.60
2023-02-21T14:19:44.725Z,100089.48
2023-02-21T14:22:14.690Z,100105.55
2023-02-21T14:24:48.643Z,100107.11
2023-02-21T14:27:17.052Z,100111.93
2023-02-21T14:30:06.874Z,100110.71
2023-02-21T14:32:41.572Z,100109.69
2023-02-21T14:35:29.682Z,100110.27
2023-02-21T14:38:05.057Z,100111.23
2023-02-21T14:40:34.035Z,100108.31
2023-02-21T14:43:23.323Z,100107.94
2023-02-21T14:46:10.823Z,100107.38
2023-02-21T14:48:46.467Z,100105.77
2023-02-21T14:51:40.089Z,100104.41
2023-02-21T14:54:50.197Z,100101.38
2023-02-21T14:57:37.436Z,100103.48
2023-02-21T15:00:39.913Z,100103.67
2023-02-21T15:03:19.643Z,100106.46
2023-02-21T15:06:06.643Z,100107.22
2023-02-21T15:08:44.131Z,100108.73
2023-02-21T15:11:27.993Z,100114.21
2023-02-21T15:14:23.276Z,100122.56
2023-02-21T15:16:56.493Z,100128.10
2023-02-21T15:19:32.158Z,100133.24
2023-02-21T15:22:27.049Z,100139.58
2023-02-21T15:25:02.799Z,100141.36
2023-02-21T15:27:31.285Z,100147.43
2023-02-21T15:30:14.174Z,100152.94
2023-02-21T15:32:43.920Z,100152.27
2023-02-21T15:35:21.305Z,100159.81
2023-02-21T15:37:50.201Z,100161.39
2023-02-21T15:40:23.796Z,100161.77
2023-02-21T15:42:55.042Z,100160.23
2023-02-21T15:45:35.002Z,100157.98
2023-02-21T15:48:04.710Z,100164.39
2023-02-21T15:50:38.925Z,100166.81
2023-02-21T15:53:36.900Z,100164.63
2023-02-21T15:56:37.945Z,100168.31
2023-02-21T15:59:27.313Z,100170.85
2023-02-21T16:02:23.394Z,100174.89
2023-02-21T16:04:53.281Z,100178.51
2023-02-21T16:07:22.258Z,100179.45
2023-02-21T16:09:59.622Z,100185.02
2023-02-21T16:12:40.635Z,100185.69
2023-02-21T16:15:34.532Z,100195.48
2023-02-21T16:18:08.944Z,100195.48
2023-02-21T16:20:40.784Z,100204.77
2023-02-21T16:23:34.461Z,100204.56
2023-02-21T16:26:22.393Z,100213.88
2023-02-21T16:28:50.814Z,100219.52
2023-02-21T16:31:32.361Z,100224.55
2023-02-21T16:34:01.461Z,100226.67
2023-02-21T16:36:31.926Z,100233.83
2023-02-21T16:39:00.487Z,100234.83
2023-02-21T16:41:29.368Z,100240.58
2023-02-21T16:43:57.965Z,100243.48
2023-02-21T16:46:30.054Z,100251.46
2023-02-21T16:49:00.058Z,100254.16
2023-02-21T16:51:33.950Z,100255.02
2023-02-21T16:54:03.475Z,100260.84
2023-02-21T16:56:32.356Z,100268.13
2023-02-21T16:59:01.820Z,100268.57
2023-02-21T17:01:32.981Z,100271.34
2023-02-21T17:04:06.092Z,100273.30
2023-02-21T17:06:34.827Z,100276.23
2023-02-21T17:09:03.160Z,100278.08
2023-02-21T17:11:31.697Z,100284.98
2023-02-21T17:14:00.397Z,100287.78
2023-02-21T17:16:28.929Z,100289.48
2023-02-21T17:18:57.451Z,100292.02
2023-02-21T17:21:25.985Z,100292.05
2023-02-21T17:23:54.565Z,100298.02
2023-02-21T17:26:22.947Z,100301.54
2023-02-21T17:28:52.451Z,100301.69
2023-02-21T17:31:20.806Z,100301.34
2023-02-21T17:33:49.618Z,100306.38
2023-02-21T17:36:22.405Z,100312.01
2023-02-21T17:38:51.460Z,100312.92
2023-02-21T17:42:19.584Z,100315.30
2023-02-21T17:44:48.313Z,100315.23
2023-02-21T17:47:22.448Z,100312.84
2023-02-21T17:49:54.919Z,100314.61
2023-02-21T17:52:23.753Z,100315.23
2023-02-21T17:54:52.128Z,100325.51
2023-02-21T17:57:20.989Z,100326.69
2023-02-21T17:59:49.611Z,100333.15
2023-02-21T18:02:19.217Z,100346.33
2023-02-21T18:04:50.109Z,100355.88
2023-02-21T18:07:18.646Z,100367.55
2023-02-21T18:09:47.547Z,100369.84
2023-02-21T18:12:16.855Z,100366.61
2023-02-21T18:14:45.624Z,100363.66
2023-02-21T18:17:14.006Z,100359.98
2023-02-21T18:19:42.692Z,100361.73
2023-02-21T18:22:11.497Z,100360.76
2023-02-21T18:24:41.086Z,100359.70
2023-02-21T18:27:11.007Z,100362.50
2023-02-21T18:29:39.593Z,100368.61
2023-02-21T18:32:07.994Z,100375.30
2023-02-21T18:34:36.662Z,100373.52
2023-02-21T18:37:05.547Z,100379.29
2023-02-21T18:39:33.930Z,100381.80
2023-02-21T18:42:02.266Z,100385.55
2023-02-21T18:44:32.124Z,100392.30
2023-02-21T18:47:01.919Z,100390.52
2023-02-21T18:49:34.537Z,100390.25
2023-02-21T18:52:07.320Z,100394.34
2023-02-21T18:54:36.908Z,100394.76
2023-02-21T18:57:05.909Z,100399.41
2023-02-21T19:00:34.206Z,100402.85
2023-02-21T19:03:06.349Z,100410.55
2023-02-21T19:05:35.965Z,100411.48
2023-02-21T19:08:04.754Z,100411.95
2023-02-21T19:10:33.164Z,100413.39
2023-02-21T19:13:02.638Z,100417.50
2023-02-21T19:15:31.297Z,100423.92
2023-02-21T19:18:00.111Z,100423.66
2023-02-21T19:20:28.697Z,100433.41
2023-02-21T19:22:57.546Z,100434.19
2023-02-21T19:25:31.111Z,100438.61
2023-02-21T19:28:03.013Z,100439.30
2023-02-21T19:30:37.223Z,100440.21
2023-02-21T19:33:08.372Z,100440.27
2023-02-21T19:35:38.231Z,100440.66
2023-02-21T19:38:08.589Z,100443.14
2023-02-21T19:40:37.141Z,100449.73
2023-02-21T19:43:06.618Z,100450.31
2023-02-21T19:45:35.954Z,100449.58
2023-02-21T19:48:04.949Z,100449.08
2023-02-21T19:50:34.960Z,100452.66
2023-02-21T19:53:06.516Z,100451.39
2023-02-21T19:55:35.200Z,100455.95
2023-02-21T19:58:09.020Z,100461.55
2023-02-21T20:00:40.240Z,100470.43
2023-02-21T20:03:09.117Z,100471.25
2023-02-21T20:05:38.135Z,100477.95
2023-02-21T20:08:09.282Z,100481.30
2023-02-21T20:10:37.952Z,100486.77
2023-02-21T20:13:06.658Z,100488.02
2023-02-21T20:15:36.441Z,100489.88
2023-02-21T20:18:05.258Z,100488.31
2023-02-21T20:20:34.614Z,100492.02
2023-02-21T20:23:04.606Z,100492.91
2023-02-21T20:25:33.278Z,100491.29
2023-02-21T20:28:07.412Z,100487.73
2023-02-21T20:30:36.925Z,100495.10
2023-02-21T20:33:07.077Z,100493.77
2023-02-21T20:35:36.207Z,100494.58
2023-02-21T20:38:05.611Z,100498.90
2023-02-21T20:40:35.312Z,100505.69
2023-02-21T20:43:04.725Z,100514.02
2023-02-21T20:45:33.406Z,100517.04
2023-02-21T20:48:02.670Z,100513.52
2023-02-21T20:50:31.708Z,100517.16
2023-02-21T20:53:01.536Z,100519.98
2023-02-21T20:55:30.006Z,100522.14
2023-02-21T20:57:58.744Z,100525.05
2023-02-21T21:00:30.638Z,100531.05
2023-02-21T21:02:59.852Z,100534.15
2023-02-21T21:05:28.649Z,100533.34
2023-02-21T21:07:58.326Z,100534.25
2023-02-21T21:10:27.139Z,100536.83
2023-02-21T21:12:56.851Z,100535.04
2023-02-21T21:15:26.048Z,100535.06
2023-02-21T21:17:55.615Z,100537.92
2023-02-21T21:20:27.204Z,100539.45
2023-02-21T21:22:55.490Z,100534.83
2023-02-21T21:25:24.589Z,100533.94
2023-02-21T21:27:53.273Z,100535.07
2023-02-21T21:30:23.633Z,100537.53
2023-02-21T21:32:52.097Z,100535.61
2023-02-21T21:35:21.190Z,100530.33
2023-02-21T21:37:49.833Z,100533.91
2023-02-21T21:40:18.649Z,100533.27
2023-02-21T21:42:54.845Z,100538.22
2023-02-21T21:45:26.610Z,100535.85
2023-02-21T21:47:58.746Z,100534.35
2023-02-21T21:50:27.532Z,100533.94
2023-02-21T21:53:00.274Z,100534.38
2023-02-21T21:55:30.645Z,100528.66
2023-02-21T21:57:59.448Z,100523.30
2023-02-21T22:00:31.001Z,100525.36
2023-02-21T22:03:02.247Z,100523.10
2023-02-21T22:05:32.106Z,100524.05
2023-02-21T22:08:00.837Z,100525.13
2023-02-21T22:10:29.831Z,100523.16
2023-02-21T22:13:00.873Z,100525.37
2023-02-21T22:15:30.110Z,100523.11
2023-02-21T22:18:04.283Z,100525.98
2023-02-21T22:20:32.840Z,100521.82
2023-02-21T22:23:01.553Z,100523.19
2023-02-21T22:25:30.855Z,100528.26
2023-02-21T22:28:04.368Z,100525.98
2023-02-21T22:30:32.991Z,100526.77
2023-02-21T22:33:01.621Z,100531.15
2023-02-21T22:35:30.309Z,100537.39
2023-02-21T22:38:02.237Z,100540.07
2023-02-21T22:40:35.783Z,100544.64
2023-02-21T22:43:06.157Z,100548.90
2023-02-21T22:45:36.120Z,100549.60
2023-02-21T22:48:07.235Z,100544.05
2023-02-21T22:50:39.725Z,100544.31
2023-02-21T22:53:13.260Z,100550.88
2023-02-21T22:55:41.612Z,100547.70
2023-02-21T22:58:11.528Z,100550.09
2023-02-21T23:00:40.011Z,100551.31
2023-02-21T23:03:15.864Z,100552.44
2023-02-21T23:05:49.977Z,100546.06
2023-02-21T23:08:21.032Z,100564.85
2023-02-21T23:10:50.389Z,100580.06
2023-02-21T23:13:21.485Z,100569.20
2023-02-21T23:15:51.717Z,100564.05
2023-02-21T23:18:21.400Z,100557.83
2023-02-21T23:20:53.756Z,100565.83
2023-02-21T23:23:27.716Z,100568.52
2023-02-21T23:26:01.392Z,100566.66
2023-02-21T23:28:30.892Z,100562.17
2023-02-21T23:30:59.497Z,100562.29
2023-02-21T23:33:30.571Z,100552.20
2023-02-21T23:35:59.979Z,100553.44
2023-02-21T23:38:28.604Z,100549.39
2023-02-21T23:40:59.590Z,100552.23
2023-02-21T23:43:30.700Z,100553.55
2023-02-21T23:46:00.613Z,100556.80
2023-02-21T23:48:32.888Z,100558.81
2023-02-21T23:51:01.393Z,100558.13
2023-02-21T23:53:32.007Z,100557.98
2023-02-21T23:56:01.052Z,100567.84
2023-02-21T23:58:34.660Z,100569.52
